Starr, Pennsylvania
Current Conditions -  °F | °C
As of 11:53 AM on Saturday 20 Dec 2014 (Local Time) from KDUJ Reporting Station
Overcast Overcast  
Wind Chill: 25°   Ceiling: 1200
Heat Index: 25°   Visibility: 10mi
Dew Point: 20°   Wind: 3mph
Humidity: 81%   Direction: 20°NNE
Pressure: 30.19"   Gusts: NA
Location:  41.5317°N, 79.2538°W
Report Text: KDUJ 201653Z AUTO 02003KT 10SM OVC012 M04/M07 A3019 RMK AO2 SLP249 T10391067
Loading
Personal Weather Stations






























Interactive Weather Map New forecast layout! Learn more

10-Day Weather Forecast

Advertisements
Track Severe Weather on mobile